Leander — DEDP — position and weather

sailwx.info

Track history (hours):
 
Tides and Currents Weather Stations Pressure Air Temp Water Temp Dewpoint Dewpoint Depression Visibility Wind Speed Wind Dir Waves Ship Positions

Leander

Last reported at 2018-Feb-25 12:25 UTC. Time now 2018-Feb-25 14:09 UTC.
Position N 35°56' E 014°49'.

Length 144 m; draft 6 m.

Type: Tanker. MMSI: 218731000.

Date/timePositionNaut miles runAvg speedWind from/ knotsBaromVisibWave heightAir tempDewpointWater temp
2018-Feb-25 12:25N 35°56' E 014°49'0 0.1
2018-Feb-25 11:58N 35°56' E 014°49'0 0.0
2018-Feb-24 16:10N 35°56' E 014°49'0 0.3
2018-Feb-24 15:59N 35°56' E 014°49'4 7.9
2018-Feb-24 15:30N 35°54' E 014°45'713.1
2018-Feb-24 14:58N 35°50' E 014°38'2 1.5
2018-Feb-24 13:43N 35°50' E 014°36'0 0.0
2018-Feb-24 13:28N 35°50' E 014°36'0 0.0
2018-Feb-24 12:07N 35°50' E 014°36'0 1.5
2018-Feb-24 11:49N 35°50' E 014°37'3 9.7
2018-Feb-24 11:28N 35°50' E 014°41'713.0
2018-Feb-24 10:54N 35°55' E 014°47'2 0.6
2018-Feb-24 06:49N 35°56' E 014°49'0 0.0
2018-Feb-23 20:58N 35°56' E 014°49'14 7.1
2018-Feb-23 19:03N 36°09' E 014°42'113.2
2018-Feb-23 18:59N 36°09' E 014°42'613.2
2018-Feb-23 18:30N 36°15' E 014°37'1 1.2
2018-Feb-23 18:00N 36°15' E 014°37'4 7.9
2018-Feb-23 17:30N 36°12' E 014°40'7 8.6
2018-Feb-23 16:41N 36°06' E 014°45'4 8.3
2018-Feb-23 16:15N 36°03' E 014°48'2 7.4
2018-Feb-23 15:57N 36°01' E 014°49'4 8.1
2018-Feb-23 15:28N 35°58' E 014°51'2 0.3
2018-Feb-23 09:08N 35°56' E 014°49'0 0.0
2018-Feb-23 08:41N 35°56' E 014°49'0 0.1
2018-Feb-23 08:23N 35°56' E 014°49'0 0.0
2018-Feb-22 15:47N 35°56' E 014°49'0 0.0
2018-Feb-22 14:29N 35°56' E 014°49'0 0.0
2018-Feb-22 12:47N 35°56' E 014°49'  
2018-Feb-19 15:23N 39°46' E 018°33'3 7.9
2018-Feb-19 15:00N 39°49' E 018°34'4 7.7
2018-Feb-19 14:30N 39°53' E 018°36'384 7.7
2018-Feb-17 12:25N 44°45' E 012°57'3 8.0
2018-Feb-17 12:00N 44°48' E 012°55'4 8.1
2018-Feb-17 11:30N 44°51' E 012°53'5 8.1
2018-Feb-17 10:51N 44°56' E 012°50'3 8.0
2018-Feb-17 10:30N 44°59' E 012°48'4 7.9
2018-Feb-17 10:00N 45°02' E 012°46'4 7.8
2018-Feb-17 09:30N 45°06' E 012°43'4 7.6
2018-Feb-17 08:57N 45°08' E 012°39'3 7.8
2018-Feb-17 08:30N 45°10' E 012°35'4 7.3
2018-Feb-17 07:58N 45°13' E 012°31'3 7.2
2018-Feb-17 07:30N 45°16' E 012°28'4 7.5
2018-Feb-17 07:00N 45°18' E 012°24'1 0.3
2018-Feb-17 02:47N 45°20' E 012°24'0 0.0
2018-Feb-17 02:29N 45°20' E 012°24'0 0.0
2018-Feb-17 01:56N 45°20' E 012°24'0 0.0
2018-Feb-17 01:26N 45°20' E 012°24'0 0.0
2018-Feb-17 00:56N 45°20' E 012°24'0 0.0
2018-Feb-17 00:26N 45°20' E 012°24'0 0.0
2018-Feb-16 23:56N 45°20' E 012°24'0 0.0
2018-Feb-16 23:26N 45°20' E 012°24'0 0.0
2018-Feb-16 22:56N 45°20' E 012°24'0 0.0
2018-Feb-16 22:26N 45°20' E 012°24'0 0.0
2018-Feb-16 21:56N 45°20' E 012°24'0 0.0
2018-Feb-16 21:26N 45°20' E 012°24'0 0.0
2018-Feb-16 20:56N 45°20' E 012°24'0 0.1
2018-Feb-16 20:26N 45°20' E 012°24'0 0.0
2018-Feb-16 19:56N 45°20' E 012°24'0 0.0
2018-Feb-16 19:26N 45°20' E 012°24'0 0.0
2018-Feb-16 18:56N 45°20' E 012°24'0 0.0
2018-Feb-16 18:26N 45°20' E 012°24'0 0.0
2018-Feb-16 17:56N 45°20' E 012°24'0 0.0
2018-Feb-16 17:26N 45°20' E 012°24'0 0.0
2018-Feb-16 16:56N 45°20' E 012°24'0 0.0
2018-Feb-16 16:20N 45°20' E 012°24'0 0.0
2018-Feb-16 15:56N 45°20' E 012°24'0 0.0
2018-Feb-16 15:26N 45°20' E 012°24'0 0.0
2018-Feb-16 14:56N 45°20' E 012°24'0 0.1
2018-Feb-16 14:26N 45°20' E 012°24'0 0.1
2018-Feb-16 13:56N 45°20' E 012°24'0 0.2
2018-Feb-16 13:26N 45°20' E 012°24'0 0.1
2018-Feb-16 12:56N 45°20' E 012°24'0 0.0
2018-Feb-16 12:26N 45°20' E 012°24'0 0.0
2018-Feb-16 11:56N 45°20' E 012°24'0 0.0
2018-Feb-16 11:26N 45°20' E 012°24'0 0.0
2018-Feb-16 10:56N 45°20' E 012°24'0 0.0
2018-Feb-16 10:26N 45°20' E 012°24'0 0.0
2018-Feb-16 09:56N 45°20' E 012°24'0 0.0
2018-Feb-16 09:26N 45°20' E 012°24'0 0.0
2018-Feb-16 08:56N 45°20' E 012°24'0 0.0
2018-Feb-16 08:26N 45°20' E 012°24'0 0.0
2018-Feb-16 07:56N 45°20' E 012°24'0 0.0
2018-Feb-16 07:29N 45°20' E 012°24'  
Track history (hours):
 
Tides and Currents Weather Stations Pressure Air Temp Water Temp Dewpoint Dewpoint Depression Visibility Wind Speed Wind Dir Waves Ship Positions

Leander

Last reported at 2018-Feb-25 12:25 UTC. Time now 2018-Feb-25 14:09 UTC.
Position N 35°56' E 014°49'.

Length 144 m; draft 6 m.

Type: Tanker. MMSI: 218731000.

Date/timePositionNaut miles runAvg speedWind from/ knotsBaromVisibWave heightAir tempDewpointWater temp
2018-Feb-25 12:25N 35°56' E 014°49'0 0.1
2018-Feb-25 11:58N 35°56' E 014°49'0 0.0
2018-Feb-24 16:10N 35°56' E 014°49'0 0.3
2018-Feb-24 15:59N 35°56' E 014°49'4 7.9
2018-Feb-24 15:30N 35°54' E 014°45'713.1
2018-Feb-24 14:58N 35°50' E 014°38'2 1.5
2018-Feb-24 13:43N 35°50' E 014°36'0 0.0
2018-Feb-24 13:28N 35°50' E 014°36'0 0.0
2018-Feb-24 12:07N 35°50' E 014°36'0 1.5
2018-Feb-24 11:49N 35°50' E 014°37'3 9.7
2018-Feb-24 11:28N 35°50' E 014°41'713.0
2018-Feb-24 10:54N 35°55' E 014°47'2 0.6
2018-Feb-24 06:49N 35°56' E 014°49'0 0.0
2018-Feb-23 20:58N 35°56' E 014°49'14 7.1
2018-Feb-23 19:03N 36°09' E 014°42'113.2
2018-Feb-23 18:59N 36°09' E 014°42'613.2
2018-Feb-23 18:30N 36°15' E 014°37'1 1.2
2018-Feb-23 18:00N 36°15' E 014°37'4 7.9
2018-Feb-23 17:30N 36°12' E 014°40'7 8.6
2018-Feb-23 16:41N 36°06' E 014°45'4 8.3
2018-Feb-23 16:15N 36°03' E 014°48'2 7.4
2018-Feb-23 15:57N 36°01' E 014°49'4 8.1
2018-Feb-23 15:28N 35°58' E 014°51'2 0.3
2018-Feb-23 09:08N 35°56' E 014°49'0 0.0
2018-Feb-23 08:41N 35°56' E 014°49'0 0.1
2018-Feb-23 08:23N 35°56' E 014°49'0 0.0
2018-Feb-22 15:47N 35°56' E 014°49'0 0.0
2018-Feb-22 14:29N 35°56' E 014°49'0 0.0
2018-Feb-22 12:47N 35°56' E 014°49'  
2018-Feb-19 15:23N 39°46' E 018°33'3 7.9
2018-Feb-19 15:00N 39°49' E 018°34'4 7.7
2018-Feb-19 14:30N 39°53' E 018°36'384 7.7
2018-Feb-17 12:25N 44°45' E 012°57'3 8.0
2018-Feb-17 12:00N 44°48' E 012°55'4 8.1
2018-Feb-17 11:30N 44°51' E 012°53'5 8.1
2018-Feb-17 10:51N 44°56' E 012°50'3 8.0
2018-Feb-17 10:30N 44°59' E 012°48'4 7.9
2018-Feb-17 10:00N 45°02' E 012°46'4 7.8
2018-Feb-17 09:30N 45°06' E 012°43'4 7.6
2018-Feb-17 08:57N 45°08' E 012°39'3 7.8
2018-Feb-17 08:30N 45°10' E 012°35'4 7.3
2018-Feb-17 07:58N 45°13' E 012°31'3 7.2
2018-Feb-17 07:30N 45°16' E 012°28'4 7.5
2018-Feb-17 07:00N 45°18' E 012°24'1 0.3
2018-Feb-17 02:47N 45°20' E 012°24'0 0.0
2018-Feb-17 02:29N 45°20' E 012°24'0 0.0
2018-Feb-17 01:56N 45°20' E 012°24'0 0.0
2018-Feb-17 01:26N 45°20' E 012°24'0 0.0
2018-Feb-17 00:56N 45°20' E 012°24'0 0.0
2018-Feb-17 00:26N 45°20' E 012°24'0 0.0
2018-Feb-16 23:56N 45°20' E 012°24'0 0.0
2018-Feb-16 23:26N 45°20' E 012°24'0 0.0
2018-Feb-16 22:56N 45°20' E 012°24'0 0.0
2018-Feb-16 22:26N 45°20' E 012°24'0 0.0
2018-Feb-16 21:56N 45°20' E 012°24'0 0.0
2018-Feb-16 21:26N 45°20' E 012°24'0 0.0
2018-Feb-16 20:56N 45°20' E 012°24'0 0.1
2018-Feb-16 20:26N 45°20' E 012°24'0 0.0
2018-Feb-16 19:56N 45°20' E 012°24'0 0.0
2018-Feb-16 19:26N 45°20' E 012°24'0 0.0
2018-Feb-16 18:56N 45°20' E 012°24'0 0.0
2018-Feb-16 18:26N 45°20' E 012°24'0 0.0
2018-Feb-16 17:56N 45°20' E 012°24'0 0.0
2018-Feb-16 17:26N 45°20' E 012°24'0 0.0
2018-Feb-16 16:56N 45°20' E 012°24'0 0.0
2018-Feb-16 16:20N 45°20' E 012°24'0 0.0
2018-Feb-16 15:56N 45°20' E 012°24'0 0.0
2018-Feb-16 15:26N 45°20' E 012°24'0 0.0
2018-Feb-16 14:56N 45°20' E 012°24'0 0.1
2018-Feb-16 14:26N 45°20' E 012°24'0 0.1
2018-Feb-16 13:56N 45°20' E 012°24'0 0.2
2018-Feb-16 13:26N 45°20' E 012°24'0 0.1
2018-Feb-16 12:56N 45°20' E 012°24'0 0.0
2018-Feb-16 12:26N 45°20' E 012°24'0 0.0
2018-Feb-16 11:56N 45°20' E 012°24'0 0.0
2018-Feb-16 11:26N 45°20' E 012°24'0 0.0
2018-Feb-16 10:56N 45°20' E 012°24'0 0.0
2018-Feb-16 10:26N 45°20' E 012°24'0 0.0
2018-Feb-16 09:56N 45°20' E 012°24'0 0.0
2018-Feb-16 09:26N 45°20' E 012°24'0 0.0
2018-Feb-16 08:56N 45°20' E 012°24'0 0.0
2018-Feb-16 08:26N 45°20' E 012°24'0 0.0
2018-Feb-16 07:56N 45°20' E 012°24'0 0.0
2018-Feb-16 07:29N 45°20' E 012°24'  

Dump ship's entire track history